createdAt,value
2023-07-25T00:00:00.725Z,1.35
2023-07-25T00:02:28.014Z,1.50
2023-07-25T00:04:55.314Z,1.80
2023-07-25T00:07:22.541Z,1.40
2023-07-25T00:09:51.657Z,1.35
2023-07-25T00:12:18.888Z,2.13
2023-07-25T00:14:46.086Z,1.52
2023-07-25T00:17:13.319Z,1.83
2023-07-25T00:19:40.519Z,1.60
2023-07-25T00:22:09.205Z,1.77
2023-07-25T00:24:36.468Z,2.15
2023-07-25T00:27:03.658Z,1.60
2023-07-25T00:29:30.795Z,1.80
2023-07-25T00:31:58.058Z,1.90
2023-07-25T00:34:25.315Z,2.30
2023-07-25T00:36:52.881Z,1.67
2023-07-25T00:39:20.125Z,1.85
2023-07-25T00:41:47.421Z,2.13
2023-07-25T00:44:14.637Z,1.80
2023-07-25T00:46:45.048Z,1.75
2023-07-25T00:49:12.893Z,1.58
2023-07-25T00:51:40.180Z,1.40
2023-07-25T00:54:07.435Z,1.38
2023-07-25T00:56:34.696Z,1.73
2023-07-25T00:59:05.414Z,1.77
2023-07-25T01:01:32.935Z,2.28
2023-07-25T01:04:00.454Z,1.88
2023-07-25T01:06:28.395Z,1.77
2023-07-25T01:08:56.741Z,1.65
2023-07-25T01:11:24.783Z,1.92
2023-07-25T01:13:52.736Z,1.67
2023-07-25T01:16:24.702Z,1.65
2023-07-25T01:18:53.012Z,1.77
2023-07-25T01:21:21.559Z,1.67
2023-07-25T01:23:49.096Z,1.88
2023-07-25T01:26:17.937Z,1.58
2023-07-25T01:28:45.169Z,1.52
2023-07-25T01:31:12.402Z,1.67
2023-07-25T01:33:39.679Z,1.70
2023-07-25T01:36:06.928Z,1.77
2023-07-25T01:38:34.173Z,1.70
2023-07-25T01:41:01.490Z,1.70
2023-07-25T01:43:28.663Z,1.60
2023-07-25T01:45:57.184Z,1.60
2023-07-25T01:48:24.389Z,1.83
2023-07-25T01:50:51.797Z,1.55
2023-07-25T01:53:18.952Z,1.70
2023-07-25T01:55:46.193Z,1.77
2023-07-25T01:58:13.427Z,2.00
2023-07-25T02:00:40.601Z,2.20
2023-07-25T02:03:11.228Z,2.08
2023-07-25T02:05:38.644Z,1.90
2023-07-25T02:08:06.045Z,1.77
2023-07-25T02:10:33.353Z,2.30
2023-07-25T02:13:00.625Z,2.05
2023-07-25T02:15:27.863Z,1.60
2023-07-25T02:17:55.127Z,1.90
2023-07-25T02:20:25.755Z,1.65
2023-07-25T02:22:52.943Z,1.90
2023-07-25T02:25:21.483Z,1.83
2023-07-25T02:27:48.675Z,1.70
2023-07-25T02:30:15.884Z,1.90
2023-07-25T02:32:43.098Z,1.67
2023-07-25T02:35:10.296Z,1.63
2023-07-25T02:37:37.649Z,2.17
2023-07-25T02:40:05.167Z,2.00
2023-07-25T02:42:32.597Z,2.17
2023-07-25T02:44:59.936Z,2.30
2023-07-25T02:47:27.253Z,2.40
2023-07-25T02:49:54.532Z,2.72
2023-07-25T02:52:21.715Z,2.30
2023-07-25T02:54:48.970Z,2.72
2023-07-25T02:57:16.350Z,2.58
2023-07-25T02:59:43.572Z,3.40
2023-07-25T03:02:11.702Z,2.97
2023-07-25T03:04:38.961Z,3.33
2023-07-25T03:07:06.247Z,2.72
2023-07-25T03:09:33.452Z,2.90
2023-07-25T03:12:00.652Z,2.72
2023-07-25T03:14:29.793Z,2.97
2023-07-25T03:16:57.118Z,3.42
2023-07-25T03:19:24.380Z,3.08
2023-07-25T03:21:52.378Z,3.50
2023-07-25T03:24:19.636Z,3.80
2023-07-25T03:26:46.904Z,3.55
2023-07-25T03:29:14.150Z,4.38
2023-07-25T03:31:41.345Z,5.00
2023-07-25T03:34:08.689Z,5.70
2023-07-25T03:36:35.944Z,5.75
2023-07-25T03:39:04.006Z,5.88
2023-07-25T03:41:31.695Z,5.95
2023-07-25T03:43:59.329Z,7.10
2023-07-25T03:46:26.530Z,7.60
2023-07-25T03:48:53.755Z,7.38
2023-07-25T03:51:20.983Z,7.43
2023-07-25T03:53:48.191Z,6.50
2023-07-25T03:56:15.400Z,7.43
2023-07-25T03:58:42.601Z,7.30
2023-07-25T04:01:09.910Z,7.25
2023-07-25T04:03:37.375Z,6.80
2023-07-25T04:06:04.757Z,6.35
2023-07-25T04:08:31.966Z,7.00
2023-07-25T04:10:59.222Z,6.43
2023-07-25T04:13:26.366Z,6.57
2023-07-25T04:15:53.580Z,6.20
2023-07-25T04:18:20.832Z,6.40
2023-07-25T04:20:48.080Z,6.05
2023-07-25T04:23:16.249Z,5.95
2023-07-25T04:25:43.616Z,6.25
2023-07-25T04:28:11.197Z,6.50
2023-07-25T04:30:38.422Z,5.68
2023-07-25T04:33:05.735Z,5.57
2023-07-25T04:35:32.919Z,5.82
2023-07-25T04:38:00.151Z,6.35
2023-07-25T04:40:27.611Z,5.03
2023-07-25T04:42:54.863Z,5.20
2023-07-25T04:45:22.102Z,5.15
2023-07-25T04:47:49.318Z,4.93
2023-07-25T04:50:16.644Z,4.95
2023-07-25T04:52:43.864Z,5.00
2023-07-25T04:55:11.114Z,5.10
2023-07-25T04:57:38.373Z,4.43
2023-07-25T05:00:06.826Z,5.05
2023-07-25T05:02:34.549Z,4.47
2023-07-25T05:05:01.819Z,4.47
2023-07-25T05:07:29.107Z,4.60
2023-07-25T05:09:56.304Z,4.28
2023-07-25T05:12:23.473Z,4.50
2023-07-25T05:14:50.681Z,4.30
2023-07-25T05:17:17.937Z,4.63
2023-07-25T05:19:45.136Z,3.78
2023-07-25T05:22:12.297Z,4.40
2023-07-25T05:24:39.577Z,4.05
2023-07-25T05:27:07.044Z,4.05
2023-07-25T05:29:34.707Z,4.28
2023-07-25T05:32:01.887Z,3.78
2023-07-25T05:34:29.079Z,3.70
2023-07-25T05:36:56.330Z,3.50
2023-07-25T05:39:23.529Z,4.00
2023-07-25T05:41:50.794Z,3.60
2023-07-25T05:44:18.001Z,3.35
2023-07-25T05:46:45.149Z,3.67
2023-07-25T05:49:12.318Z,3.97
2023-07-25T05:51:39.478Z,3.60
2023-07-25T05:54:06.787Z,3.72
2023-07-25T05:56:33.999Z,3.15
2023-07-25T05:59:01.212Z,3.40
2023-07-25T06:01:28.487Z,3.67
2023-07-25T06:03:55.765Z,3.80
2023-07-25T06:06:23.045Z,3.15
2023-07-25T06:08:50.206Z,3.40
2023-07-25T06:11:22.307Z,3.58
2023-07-25T06:13:50.984Z,3.17
2023-07-25T06:16:18.539Z,3.22
2023-07-25T06:18:45.740Z,3.30
2023-07-25T06:21:12.976Z,3.58
2023-07-25T06:23:40.247Z,3.15
2023-07-25T06:26:07.479Z,3.40
2023-07-25T06:28:34.640Z,3.30
2023-07-25T06:31:03.821Z,3.45
2023-07-25T06:33:31.085Z,3.28
2023-07-25T06:35:58.523Z,2.95
2023-07-25T06:38:25.693Z,3.78
2023-07-25T06:40:52.968Z,3.25
2023-07-25T06:43:20.217Z,3.30
2023-07-25T06:45:47.438Z,3.50
2023-07-25T06:48:14.681Z,2.90
2023-07-25T06:50:41.962Z,3.30
2023-07-25T06:53:09.099Z,3.70
2023-07-25T06:55:36.319Z,3.35
2023-07-25T06:58:03.632Z,2.83
2023-07-25T07:00:31.352Z,2.85
2023-07-25T07:02:58.718Z,3.45
2023-07-25T07:05:30.412Z,3.40
2023-07-25T07:07:58.205Z,3.22
2023-07-25T07:10:25.390Z,3.33
2023-07-25T07:12:54.834Z,3.33
2023-07-25T07:15:25.715Z,3.13
2023-07-25T07:17:53.878Z,2.95
2023-07-25T07:20:21.602Z,3.05
2023-07-25T07:22:48.819Z,3.25
2023-07-25T07:25:16.096Z,3.45
2023-07-25T07:27:43.370Z,3.47
2023-07-25T07:30:10.823Z,3.47
2023-07-25T07:32:38.053Z,3.53
2023-07-25T07:35:05.466Z,3.13
2023-07-25T07:37:34.370Z,3.53
2023-07-25T07:40:01.870Z,3.90
2023-07-25T07:42:29.110Z,3.45
2023-07-25T07:44:56.272Z,3.20
2023-07-25T07:47:23.478Z,3.60
2023-07-25T07:49:50.765Z,3.08
2023-07-25T07:52:29.223Z,3.60
2023-07-25T07:55:04.473Z,3.60
2023-07-25T07:57:31.719Z,3.15
2023-07-25T07:59:58.896Z,3.90
2023-07-25T08:02:26.181Z,3.00
2023-07-25T08:04:53.484Z,3.30
2023-07-25T08:07:20.823Z,3.60
2023-07-25T08:09:48.106Z,3.42
2023-07-25T08:12:15.432Z,3.22
2023-07-25T08:14:42.637Z,2.95
2023-07-25T08:17:09.817Z,3.10
2023-07-25T08:19:37.107Z,3.03
2023-07-25T08:22:04.391Z,3.17
2023-07-25T08:24:33.473Z,3.35
2023-07-25T08:27:00.806Z,3.20
2023-07-25T08:29:28.211Z,3.20
2023-07-25T08:31:55.488Z,3.33
2023-07-25T08:34:22.744Z,3.15
2023-07-25T08:36:49.903Z,3.13
2023-07-25T08:39:17.671Z,3.20
2023-07-25T08:41:45.910Z,3.22
2023-07-25T08:44:13.426Z,2.90
2023-07-25T08:46:42.936Z,3.00
2023-07-25T08:49:12.423Z,3.20
2023-07-25T08:51:40.266Z,3.25
2023-07-25T08:54:10.590Z,3.30
2023-07-25T08:56:39.766Z,3.22
2023-07-25T08:59:07.043Z,2.85
2023-07-25T09:01:34.573Z,3.08
2023-07-25T09:04:02.753Z,2.80
2023-07-25T09:06:32.169Z,2.67
2023-07-25T09:08:59.683Z,3.03
2023-07-25T09:11:27.405Z,2.70
2023-07-25T09:13:54.799Z,2.65
2023-07-25T09:16:22.087Z,2.80
2023-07-25T09:18:49.298Z,2.80
2023-07-25T09:21:17.090Z,2.42
2023-07-25T09:23:53.492Z,2.50
2023-07-25T09:26:22.845Z,2.53
2023-07-25T09:28:50.979Z,2.38
2023-07-25T09:31:18.889Z,1.88
2023-07-25T09:33:48.884Z,2.10
2023-07-25T09:36:16.344Z,2.60
2023-07-25T09:38:55.344Z,2.40
2023-07-25T09:41:23.618Z,2.15
2023-07-25T09:43:53.949Z,2.00
2023-07-25T09:46:21.412Z,2.00
2023-07-25T09:48:50.122Z,2.10
2023-07-25T09:51:17.348Z,2.05
2023-07-25T09:53:45.414Z,1.95
2023-07-25T09:56:12.972Z,2.53
2023-07-25T09:58:50.805Z,2.20
2023-07-25T10:01:27.546Z,2.28
2023-07-25T10:03:55.176Z,2.10
2023-07-25T10:06:22.710Z,1.70
2023-07-25T10:08:50.225Z,1.67
2023-07-25T10:11:18.286Z,1.65
2023-07-25T10:13:45.513Z,1.35
2023-07-25T10:16:15.583Z,1.60
2023-07-25T10:18:44.012Z,1.63
2023-07-25T10:21:14.655Z,1.25
2023-07-25T10:23:42.028Z,1.70
2023-07-25T10:26:15.946Z,1.80
2023-07-25T10:28:43.379Z,1.48
2023-07-25T10:31:23.396Z,1.58
2023-07-25T10:33:57.419Z,1.60
2023-07-25T10:36:25.244Z,1.45
2023-07-25T10:38:53.892Z,1.50
2023-07-25T10:41:21.619Z,1.38
2023-07-25T10:43:56.904Z,1.50
2023-07-25T10:46:27.584Z,1.20
2023-07-25T10:48:55.824Z,1.48
2023-07-25T10:51:24.419Z,1.40
2023-07-25T10:54:10.282Z,1.40
2023-07-25T10:56:41.651Z,1.50
2023-07-25T10:59:10.165Z,1.48
2023-07-25T11:01:44.686Z,1.23
2023-07-25T11:04:30.867Z,1.40
2023-07-25T11:06:58.247Z,1.63
2023-07-25T11:09:26.288Z,1.88
2023-07-25T11:11:54.477Z,1.60
2023-07-25T11:14:22.116Z,1.23
2023-07-25T11:16:53.298Z,1.40
2023-07-25T11:19:25.915Z,1.50
2023-07-25T11:21:53.033Z,1.58
2023-07-25T11:24:21.944Z,1.48
2023-07-25T11:26:49.230Z,2.03
2023-07-25T11:29:16.545Z,1.50
2023-07-25T11:31:48.054Z,1.30
2023-07-25T11:34:16.688Z,1.50
2023-07-25T11:36:44.372Z,1.40
2023-07-25T11:39:12.299Z,1.75
2023-07-25T11:41:39.810Z,1.55
2023-07-25T11:44:10.299Z,1.92
2023-07-25T11:46:38.799Z,1.70
2023-07-25T11:49:06.435Z,1.70
2023-07-25T11:51:34.223Z,1.48
2023-07-25T11:54:01.984Z,1.70
2023-07-25T11:56:29.308Z,1.60
2023-07-25T11:58:56.472Z,2.15
2023-07-25T12:01:28.431Z,1.40
2023-07-25T12:03:55.692Z,1.67
2023-07-25T12:06:30.701Z,1.70
2023-07-25T12:08:59.564Z,1.50
2023-07-25T12:11:28.209Z,1.60
2023-07-25T12:13:56.724Z,1.30
2023-07-25T12:16:31.842Z,1.60
2023-07-25T12:19:03.117Z,1.40
2023-07-25T12:21:31.753Z,1.45
2023-07-25T12:24:02.796Z,1.40
2023-07-25T12:26:30.591Z,1.58
2023-07-25T12:28:57.910Z,1.58
2023-07-25T12:31:25.171Z,1.30
2023-07-25T12:33:52.603Z,1.27
2023-07-25T12:36:20.379Z,1.35
2023-07-25T12:38:48.168Z,1.60
2023-07-25T12:41:15.742Z,1.58
2023-07-25T12:43:43.106Z,1.70
2023-07-25T12:46:10.923Z,1.73
2023-07-25T12:48:38.326Z,1.35
2023-07-25T12:51:05.736Z,1.83
2023-07-25T12:53:33.312Z,1.55
2023-07-25T12:56:00.864Z,1.60
2023-07-25T12:58:31.249Z,1.58
2023-07-25T13:00:58.531Z,1.48
2023-07-25T13:03:26.716Z,1.10
2023-07-25T13:05:54.353Z,1.30
2023-07-25T13:08:21.738Z,1.48
2023-07-25T13:10:49.189Z,1.60
2023-07-25T13:13:16.545Z,1.50
2023-07-25T13:15:44.793Z,1.48
2023-07-25T13:18:12.134Z,1.33
2023-07-25T13:20:39.534Z,1.45
2023-07-25T13:23:10.371Z,1.48
2023-07-25T13:25:38.488Z,1.83
2023-07-25T13:28:05.842Z,1.40
2023-07-25T13:30:33.106Z,1.40
2023-07-25T13:33:00.451Z,1.60
2023-07-25T13:35:27.909Z,1.60
2023-07-25T13:37:55.173Z,1.75
2023-07-25T13:40:22.603Z,1.25
2023-07-25T13:42:49.949Z,1.45
2023-07-25T13:45:17.151Z,1.23
2023-07-25T13:47:44.509Z,1.55
2023-07-25T13:50:11.801Z,1.13
2023-07-25T13:52:39.322Z,1.50
2023-07-25T13:55:06.886Z,1.63
2023-07-25T13:57:36.660Z,1.58
2023-07-25T14:00:06.337Z,1.50
2023-07-25T14:02:38.632Z,1.50
2023-07-25T14:05:06.251Z,1.38
2023-07-25T14:07:33.581Z,1.42
2023-07-25T14:10:00.834Z,1.38
2023-07-25T14:12:28.130Z,1.40
2023-07-25T14:14:58.809Z,1.50
2023-07-25T14:17:27.087Z,1.58
2023-07-25T14:19:54.324Z,1.30
2023-07-25T14:22:21.585Z,1.55
2023-07-25T14:24:48.926Z,1.45
2023-07-25T14:27:17.179Z,1.25
2023-07-25T14:29:44.351Z,1.52
2023-07-25T14:32:11.563Z,1.88
2023-07-25T14:34:38.733Z,1.70
2023-07-25T14:37:06.137Z,1.67
2023-07-25T14:39:33.439Z,1.70
2023-07-25T14:42:00.664Z,1.75
2023-07-25T14:44:29.983Z,1.67
2023-07-25T14:46:57.313Z,1.60
2023-07-25T14:49:24.603Z,1.55
2023-07-25T14:51:51.832Z,1.65
2023-07-25T14:54:19.188Z,1.58
2023-07-25T14:56:46.397Z,1.52
2023-07-25T14:59:13.794Z,1.90
2023-07-25T15:01:41.073Z,1.45
2023-07-25T15:04:08.290Z,1.75
2023-07-25T15:06:36.044Z,1.40
2023-07-25T15:09:03.389Z,1.67
2023-07-25T15:11:30.705Z,1.77
2023-07-25T15:13:57.977Z,1.60
2023-07-25T15:16:25.252Z,1.60
2023-07-25T15:18:52.544Z,1.80
2023-07-25T15:21:19.854Z,1.50
2023-07-25T15:23:47.055Z,1.33
2023-07-25T15:26:14.281Z,1.48
2023-07-25T15:28:41.428Z,1.50
2023-07-25T15:31:08.763Z,1.42
2023-07-25T15:33:36.079Z,1.70
2023-07-25T15:36:03.464Z,1.58
2023-07-25T15:38:31.770Z,1.63
2023-07-25T15:40:59.052Z,1.30
2023-07-25T15:43:26.375Z,1.35
2023-07-25T15:45:53.873Z,1.30
2023-07-25T15:48:21.104Z,1.20
2023-07-25T15:50:48.389Z,1.50
2023-07-25T15:53:15.704Z,1.50
2023-07-25T15:55:42.896Z,1.45
2023-07-25T15:58:10.147Z,1.35
2023-07-25T16:00:37.448Z,1.33
2023-07-25T16:03:04.904Z,1.20
2023-07-25T16:05:32.272Z,1.20
2023-07-25T16:07:59.513Z,1.52
2023-07-25T16:10:26.784Z,1.38
2023-07-25T16:12:54.126Z,1.80
2023-07-25T16:15:21.600Z,1.42
2023-07-25T16:17:48.992Z,1.27
2023-07-25T16:20:16.448Z,1.45
2023-07-25T16:22:43.717Z,1.40
2023-07-25T16:25:11.013Z,1.83
2023-07-25T16:27:38.282Z,1.50
2023-07-25T16:30:05.841Z,1.13
2023-07-25T16:32:33.136Z,1.10
2023-07-25T16:35:01.576Z,1.40
2023-07-25T16:37:29.417Z,1.40
2023-07-25T16:39:56.771Z,1.23
2023-07-25T16:42:24.496Z,1.08
2023-07-25T16:44:51.768Z,0.93
2023-07-25T16:47:19.087Z,1.20
2023-07-25T16:49:46.293Z,1.40
2023-07-25T16:52:13.509Z,1.40
2023-07-25T16:54:40.842Z,1.20
2023-07-25T16:57:08.213Z,1.70
2023-07-25T16:59:35.524Z,1.40
2023-07-25T17:02:02.812Z,1.20
2023-07-25T17:04:30.148Z,1.73
2023-07-25T17:06:57.402Z,1.50
2023-07-25T17:09:24.610Z,1.40
2023-07-25T17:11:51.862Z,1.65
2023-07-25T17:14:19.051Z,1.45
2023-07-25T17:16:46.266Z,1.27
2023-07-25T17:19:14.931Z,1.40
2023-07-25T17:21:42.327Z,1.35
2023-07-25T17:24:09.608Z,1.70
2023-07-25T17:26:36.950Z,1.20
2023-07-25T17:29:04.292Z,1.50
2023-07-25T17:31:31.734Z,1.23
2023-07-25T17:33:59.804Z,1.40
2023-07-25T17:36:27.001Z,1.48
2023-07-25T17:38:54.318Z,1.25
2023-07-25T17:41:21.570Z,1.38
2023-07-25T17:43:48.844Z,1.58
2023-07-25T17:46:16.062Z,1.55
2023-07-25T17:48:43.373Z,1.17
2023-07-25T17:51:10.843Z,1.30
2023-07-25T17:53:38.075Z,1.27
2023-07-25T17:56:05.825Z,1.48
2023-07-25T17:58:33.029Z,1.63
2023-07-25T18:01:00.570Z,1.30
2023-07-25T18:03:27.862Z,1.58
2023-07-25T18:05:55.192Z,1.50
2023-07-25T18:08:22.517Z,1.52
2023-07-25T18:10:49.816Z,1.65
2023-07-25T18:13:21.146Z,1.40
2023-07-25T18:15:48.552Z,1.35
2023-07-25T18:18:17.615Z,1.20
2023-07-25T18:20:44.866Z,1.50
2023-07-25T18:23:14.040Z,1.27
2023-07-25T18:25:42.125Z,1.30
2023-07-25T18:28:09.332Z,1.45
2023-07-25T18:30:37.229Z,1.92
2023-07-25T18:33:04.829Z,1.60
2023-07-25T18:35:32.583Z,1.40
2023-07-25T18:38:00.709Z,1.60
2023-07-25T18:40:28.159Z,1.80
2023-07-25T18:42:55.466Z,1.85
2023-07-25T18:45:22.703Z,1.92
2023-07-25T18:47:51.418Z,4.80
2023-07-25T18:50:18.792Z,3.88
2023-07-25T18:52:45.999Z,3.08
2023-07-25T18:55:13.363Z,3.25
2023-07-25T18:57:40.745Z,3.40
2023-07-25T19:00:08.268Z,2.72
2023-07-25T19:02:35.653Z,2.95
2023-07-25T19:05:02.914Z,2.80
2023-07-25T19:07:30.189Z,2.88
2023-07-25T19:09:57.473Z,2.60
2023-07-25T19:12:25.490Z,2.33
2023-07-25T19:14:52.708Z,2.15
2023-07-25T19:17:19.956Z,1.90
2023-07-25T19:19:47.299Z,2.05
2023-07-25T19:22:14.551Z,1.83
2023-07-25T19:24:41.859Z,2.65
2023-07-25T19:27:09.071Z,1.80
2023-07-25T19:29:36.834Z,2.17
2023-07-25T19:32:04.297Z,1.83
2023-07-25T19:34:31.565Z,1.88
2023-07-25T19:36:58.818Z,2.38
2023-07-25T19:39:26.080Z,2.00
2023-07-25T19:41:54.286Z,2.08
2023-07-25T19:44:21.887Z,2.70
2023-07-25T19:46:49.155Z,2.35
2023-07-25T19:49:16.394Z,2.13
2023-07-25T19:51:45.358Z,2.40
2023-07-25T19:54:14.638Z,2.53
2023-07-25T19:56:41.835Z,2.28
2023-07-25T19:59:09.056Z,2.40
2023-07-25T20:01:36.466Z,2.30
2023-07-25T20:04:03.722Z,3.00
2023-07-25T20:06:31.282Z,2.60
2023-07-25T20:09:01.557Z,3.00
2023-07-25T20:11:30.048Z,2.70
2023-07-25T20:13:57.556Z,2.85
2023-07-25T20:16:25.044Z,3.33
2023-07-25T20:18:52.222Z,4.55
2023-07-25T20:21:19.586Z,3.60
2023-07-25T20:23:46.859Z,3.92
2023-07-25T20:26:14.884Z,2.78
2023-07-25T20:28:42.172Z,2.67
2023-07-25T20:31:09.417Z,2.60
2023-07-25T20:33:36.635Z,2.53
2023-07-25T20:36:04.069Z,2.65
2023-07-25T20:38:32.557Z,2.40
2023-07-25T20:40:59.869Z,2.78
2023-07-25T20:43:27.075Z,2.80
2023-07-25T20:45:54.324Z,2.40
2023-07-25T20:48:22.080Z,2.72
2023-07-25T20:50:50.083Z,2.20
2023-07-25T20:53:17.351Z,2.40
2023-07-25T20:55:45.008Z,2.33
2023-07-25T20:58:12.331Z,2.17
2023-07-25T21:00:39.646Z,2.33
2023-07-25T21:03:06.944Z,2.60
2023-07-25T21:05:34.242Z,2.28
2023-07-25T21:08:01.498Z,2.47
2023-07-25T21:10:28.731Z,2.35
2023-07-25T21:12:56.767Z,2.47
2023-07-25T21:15:24.019Z,2.25
2023-07-25T21:18:06.729Z,2.80
2023-07-25T21:20:38.429Z,2.17
2023-07-25T21:23:05.669Z,3.05
2023-07-25T21:25:32.941Z,3.40
2023-07-25T21:28:01.722Z,2.40
2023-07-25T21:30:31.188Z,2.85
2023-07-25T21:32:58.736Z,2.83
2023-07-25T21:35:26.720Z,2.50
2023-07-25T21:37:53.995Z,2.42
2023-07-25T21:40:21.236Z,2.13
2023-07-25T21:42:48.440Z,2.60
2023-07-25T21:45:15.883Z,2.70
2023-07-25T21:47:43.246Z,3.20
2023-07-25T21:50:10.990Z,3.10
2023-07-25T21:52:38.204Z,2.75
2023-07-25T21:55:05.686Z,2.75
2023-07-25T21:57:32.897Z,2.72
2023-07-25T22:00:00.266Z,2.80
2023-07-25T22:02:29.787Z,2.55
2023-07-25T22:04:57.455Z,2.65
2023-07-25T22:07:24.753Z,2.53
2023-07-25T22:09:52.568Z,3.10
2023-07-25T22:12:19.931Z,2.60
2023-07-25T22:14:47.165Z,2.65
2023-07-25T22:17:14.366Z,2.55
2023-07-25T22:19:41.671Z,2.58
2023-07-25T22:22:08.831Z,2.90
2023-07-25T22:24:36.260Z,2.85
2023-07-25T22:27:03.530Z,2.65
2023-07-25T22:29:30.803Z,3.28
2023-07-25T22:31:58.036Z,3.08
2023-07-25T22:34:25.336Z,3.50
2023-07-25T22:36:52.626Z,3.60
2023-07-25T22:39:20.078Z,3.28
2023-07-25T22:41:47.322Z,3.03
2023-07-25T22:44:14.561Z,3.28
2023-07-25T22:46:41.887Z,3.17
2023-07-25T22:49:09.098Z,3.25
2023-07-25T22:51:36.352Z,3.22
2023-07-25T22:54:03.642Z,2.88
2023-07-25T22:56:31.093Z,3.30
2023-07-25T22:58:58.561Z,3.33
2023-07-25T23:01:25.879Z,3.33
2023-07-25T23:03:53.371Z,3.00
2023-07-25T23:06:20.582Z,3.20
2023-07-25T23:08:47.812Z,3.30
2023-07-25T23:11:15.083Z,3.00
2023-07-25T23:13:42.509Z,3.00
2023-07-25T23:16:09.791Z,3.30
2023-07-25T23:18:37.162Z,2.95
2023-07-25T23:21:04.491Z,3.42
2023-07-25T23:23:31.734Z,3.70
2023-07-25T23:25:59.052Z,3.70
2023-07-25T23:28:26.302Z,3.22
2023-07-25T23:30:53.557Z,3.17
2023-07-25T23:33:22.416Z,3.10
2023-07-25T23:35:49.746Z,3.65
2023-07-25T23:38:17.020Z,3.53
2023-07-25T23:40:44.303Z,3.35
2023-07-25T23:43:12.490Z,3.08
2023-07-25T23:45:39.729Z,3.53
2023-07-25T23:48:07.032Z,3.90
2023-07-25T23:50:34.280Z,3.65
2023-07-25T23:53:01.542Z,3.58
2023-07-25T23:55:28.739Z,3.08
2023-07-25T23:57:55.976Z,3.33
